createdAt,value
2023-05-08T00:00:15.734Z,4.93
2023-05-08T00:02:43.820Z,4.50
2023-05-08T00:05:11.884Z,4.50
2023-05-08T00:07:39.968Z,4.53
2023-05-08T00:10:10.580Z,4.40
2023-05-08T00:12:40.133Z,4.37
2023-05-08T00:15:12.293Z,5.17
2023-05-08T00:17:40.410Z,4.97
2023-05-08T00:20:09.865Z,4.67
2023-05-08T00:22:40.329Z,5.07
2023-05-08T00:25:09.280Z,4.80
2023-05-08T00:27:38.654Z,4.43
2023-05-08T00:30:10.006Z,5.80
2023-05-08T00:32:38.367Z,5.87
2023-05-08T00:35:09.349Z,5.67
2023-05-08T00:37:40.679Z,7.47
2023-05-08T00:40:11.189Z,7.50
2023-05-08T00:42:40.857Z,9.33
2023-05-08T00:45:10.982Z,8.87
2023-05-08T00:47:39.786Z,9.00
2023-05-08T00:50:09.931Z,9.03
2023-05-08T00:52:39.077Z,8.20
2023-05-08T00:55:08.864Z,9.43
2023-05-08T00:57:37.889Z,8.73
2023-05-08T01:00:10.690Z,9.63
2023-05-08T01:02:39.800Z,9.50
2023-05-08T01:05:08.653Z,9.37
2023-05-08T01:07:36.829Z,8.70
2023-05-08T01:10:05.389Z,8.20
2023-05-08T01:12:50.574Z,7.63
2023-05-08T01:15:30.311Z,8.00
2023-05-08T01:18:09.990Z,7.33
2023-05-08T01:20:47.667Z,6.63
2023-05-08T01:24:23.369Z,7.53
2023-05-08T01:27:53.745Z,7.17
2023-05-08T01:30:56.477Z,8.33
2023-05-08T01:33:34.654Z,7.60
2023-05-08T01:36:32.697Z,7.73
2023-05-08T01:39:13.993Z,7.90
2023-05-08T01:41:46.657Z,7.13
2023-05-08T01:44:19.878Z,6.20
2023-05-08T01:46:51.639Z,7.97
2023-05-08T01:49:27.458Z,7.70
2023-05-08T01:52:00.049Z,7.60
2023-05-08T01:54:34.835Z,7.20
2023-05-08T01:57:04.534Z,6.70
2023-05-08T01:59:35.053Z,6.97
2023-05-08T02:02:05.156Z,6.90
2023-05-08T02:04:35.596Z,5.90
2023-05-08T02:07:11.208Z,6.83
2023-05-08T02:09:41.988Z,7.60
2023-05-08T02:12:12.006Z,7.50
2023-05-08T02:14:43.474Z,7.17
2023-05-08T02:17:12.513Z,7.40
2023-05-08T02:19:44.148Z,6.97
2023-05-08T02:22:13.272Z,8.00
2023-05-08T02:24:43.091Z,8.37
2023-05-08T02:27:12.168Z,9.13
2023-05-08T02:29:40.749Z,8.20
2023-05-08T02:32:10.462Z,8.10
2023-05-08T02:34:51.146Z,7.90
2023-05-08T02:37:32.103Z,7.20
2023-05-08T02:40:00.741Z,5.57
2023-05-08T02:42:28.841Z,7.10
2023-05-08T02:44:56.863Z,6.50
2023-05-08T02:47:30.740Z,7.20
2023-05-08T02:50:10.613Z,6.07
2023-05-08T02:52:49.063Z,6.87
2023-05-08T02:55:30.432Z,7.67
2023-05-08T02:58:12.493Z,6.97
2023-05-08T03:00:48.368Z,8.47
2023-05-08T03:03:23.869Z,7.47
2023-05-08T03:05:58.608Z,7.37
2023-05-08T03:08:31.753Z,7.33
2023-05-08T03:11:06.594Z,7.20
2023-05-08T03:13:37.153Z,7.83
2023-05-08T03:16:08.181Z,9.30
2023-05-08T03:18:43.409Z,13.20
2023-05-08T03:21:17.642Z,14.80
2023-05-08T03:23:47.941Z,13.93
2023-05-08T03:26:20.121Z,13.03
2023-05-08T03:28:50.763Z,14.47
2023-05-08T03:31:23.126Z,14.33
2023-05-08T03:33:56.294Z,14.53
2023-05-08T03:36:28.791Z,14.57
2023-05-08T03:38:57.260Z,14.60
2023-05-08T03:41:27.174Z,13.60
2023-05-08T03:43:56.029Z,13.90
2023-05-08T03:46:27.507Z,13.00
2023-05-08T03:49:00.108Z,15.27
2023-05-08T03:51:34.303Z,14.80
2023-05-08T03:54:02.374Z,13.87
2023-05-08T03:56:30.393Z,14.33
2023-05-08T03:59:15.113Z,14.13
2023-05-08T04:01:55.971Z,14.07
2023-05-08T04:04:34.502Z,14.53
2023-05-08T04:07:10.033Z,13.10
2023-05-08T04:09:59.205Z,15.60
2023-05-08T04:12:37.518Z,13.37
2023-05-08T04:15:11.021Z,14.80
2023-05-08T04:17:46.535Z,15.20
2023-05-08T04:20:20.659Z,15.90
2023-05-08T04:22:53.746Z,16.73
2023-05-08T04:25:23.868Z,15.50
2023-05-08T04:27:54.950Z,17.03
2023-05-08T04:30:24.140Z,16.43
2023-05-08T04:32:53.010Z,16.63
2023-05-08T04:35:21.506Z,16.40
2023-05-08T04:37:51.625Z,16.03
2023-05-08T04:40:19.728Z,15.83
2023-05-08T04:42:48.031Z,15.93
2023-05-08T04:45:19.304Z,16.10
2023-05-08T04:47:47.671Z,15.77
2023-05-08T04:50:15.938Z,15.40
2023-05-08T04:52:44.044Z,14.87
2023-05-08T04:55:13.960Z,15.90
2023-05-08T04:57:42.344Z,17.10
2023-05-08T05:00:12.434Z,16.00
2023-05-08T05:02:42.540Z,16.83
2023-05-08T05:05:11.360Z,14.37
2023-05-08T05:07:39.629Z,14.43
2023-05-08T05:10:09.074Z,12.67
2023-05-08T05:12:39.318Z,12.47
2023-05-08T05:15:09.004Z,13.83
2023-05-08T05:17:39.041Z,13.60
2023-05-08T05:20:09.635Z,12.93
2023-05-08T05:22:38.324Z,13.77
2023-05-08T05:25:07.914Z,13.20
2023-05-08T05:27:40.572Z,13.40
2023-05-08T05:30:35.741Z,12.47
2023-05-08T05:33:27.912Z,11.40
2023-05-08T05:35:55.994Z,11.47
2023-05-08T05:38:25.847Z,11.33
2023-05-08T05:40:54.588Z,11.20
2023-05-08T05:43:23.987Z,11.33
2023-05-08T05:45:52.626Z,10.20
2023-05-08T05:48:21.160Z,10.67
2023-05-08T05:50:49.258Z,10.63
2023-05-08T05:53:17.253Z,10.27
2023-05-08T05:55:45.578Z,10.47
2023-05-08T05:58:13.591Z,9.87
2023-05-08T06:00:43.099Z,9.47
2023-05-08T06:03:11.562Z,8.93
2023-05-08T06:05:40.371Z,9.83
2023-05-08T06:08:08.505Z,8.30
2023-05-08T06:10:36.885Z,9.20
2023-05-08T06:13:04.960Z,10.37
2023-05-08T06:15:34.857Z,9.97
2023-05-08T06:18:05.725Z,9.33
2023-05-08T06:20:34.471Z,8.57
2023-05-08T06:23:03.006Z,7.93
2023-05-08T06:25:31.905Z,7.87
2023-05-08T06:28:00.047Z,8.47
2023-05-08T06:30:28.423Z,8.20
2023-05-08T06:32:56.771Z,7.93
2023-05-08T06:35:26.268Z,7.90
2023-05-08T06:37:54.330Z,7.70
2023-05-08T06:40:23.546Z,8.07
2023-05-08T06:42:51.542Z,7.07
2023-05-08T06:45:19.679Z,7.07
2023-05-08T06:47:47.738Z,7.37
2023-05-08T06:50:15.915Z,7.27
2023-05-08T06:52:45.216Z,7.23
2023-05-08T06:55:13.488Z,7.57
2023-05-08T06:57:41.579Z,7.70
2023-05-08T07:00:11.585Z,9.07
2023-05-08T07:02:39.653Z,7.17
2023-05-08T07:05:09.054Z,7.97
2023-05-08T07:07:37.088Z,8.67
2023-05-08T07:10:08.066Z,8.83
2023-05-08T07:12:36.161Z,7.50
2023-05-08T07:15:13.773Z,8.30
2023-05-08T07:17:46.484Z,8.10
2023-05-08T07:20:14.547Z,7.03
2023-05-08T07:22:42.518Z,8.70
2023-05-08T07:25:12.725Z,8.77
2023-05-08T07:27:41.063Z,8.73
2023-05-08T07:30:14.379Z,9.17
2023-05-08T07:32:42.599Z,9.07
2023-05-08T07:35:12.799Z,9.17
2023-05-08T07:37:41.309Z,8.77
2023-05-08T07:40:11.703Z,8.60
2023-05-08T07:42:41.516Z,7.47
2023-05-08T07:45:35.456Z,8.00
2023-05-08T07:48:05.277Z,8.20
2023-05-08T07:50:33.363Z,7.83
2023-05-08T07:53:01.469Z,7.73
2023-05-08T07:55:30.970Z,7.87
2023-05-08T07:57:59.219Z,7.20
2023-05-08T08:00:29.521Z,7.17
2023-05-08T08:02:57.750Z,7.13
2023-05-08T08:05:26.203Z,6.37
2023-05-08T08:07:54.305Z,6.53
2023-05-08T08:10:22.339Z,7.10
2023-05-08T08:12:51.690Z,5.97
2023-05-08T08:15:19.914Z,6.70
2023-05-08T08:17:48.951Z,7.07
2023-05-08T08:20:17.292Z,6.87
2023-05-08T08:22:45.314Z,6.37
2023-05-08T08:25:13.536Z,6.80
2023-05-08T08:27:41.777Z,7.97
2023-05-08T08:30:17.639Z,6.43
2023-05-08T08:32:46.876Z,6.83
2023-05-08T08:35:15.834Z,6.93
2023-05-08T08:37:44.806Z,7.47
2023-05-08T08:40:13.390Z,8.23
2023-05-08T08:42:41.807Z,7.87
2023-05-08T08:45:12.491Z,8.20
2023-05-08T08:47:43.726Z,7.60
2023-05-08T08:50:15.047Z,7.50
2023-05-08T08:52:54.290Z,6.97
2023-05-08T08:55:25.759Z,6.93
2023-05-08T08:58:04.134Z,6.53
2023-05-08T09:00:34.605Z,6.13
2023-05-08T09:03:03.078Z,6.13
2023-05-08T09:05:31.544Z,5.57
2023-05-08T09:08:00.359Z,5.67
2023-05-08T09:10:28.402Z,5.50
2023-05-08T09:12:56.599Z,4.90
2023-05-08T09:15:24.857Z,5.40
2023-05-08T09:17:54.298Z,5.40
2023-05-08T09:20:23.648Z,5.30
2023-05-08T09:22:53.746Z,5.07
2023-05-08T09:25:22.035Z,5.47
2023-05-08T09:27:50.087Z,5.30
2023-05-08T09:30:18.100Z,4.93
2023-05-08T09:32:46.444Z,5.13
2023-05-08T09:35:16.075Z,5.50
2023-05-08T09:37:45.426Z,5.50
2023-05-08T09:40:22.135Z,5.20
2023-05-08T09:42:51.347Z,6.10
2023-05-08T09:45:30.102Z,5.50
2023-05-08T09:47:58.618Z,5.97
2023-05-08T09:50:28.190Z,5.37
2023-05-08T09:52:56.577Z,5.30
2023-05-08T09:55:24.705Z,5.13
2023-05-08T09:57:58.040Z,3.60
2023-05-08T10:01:41.345Z,3.23
2023-05-08T10:04:09.519Z,3.53
2023-05-08T10:06:39.021Z,3.53
2023-05-08T10:09:12.254Z,3.73
2023-05-08T10:11:41.327Z,4.03
2023-05-08T10:14:10.882Z,3.57
2023-05-08T10:16:44.659Z,3.70
2023-05-08T10:19:18.776Z,3.73
2023-05-08T10:21:50.853Z,3.40
2023-05-08T10:24:21.269Z,2.97
2023-05-08T10:27:06.974Z,2.80
2023-05-08T10:29:48.230Z,3.90
2023-05-08T10:32:20.370Z,3.10
2023-05-08T10:34:54.163Z,2.63
2023-05-08T10:37:23.589Z,2.73
2023-05-08T10:39:53.090Z,2.40
2023-05-08T10:42:21.343Z,2.60
2023-05-08T10:44:49.624Z,2.57
2023-05-08T10:47:26.203Z,2.67
2023-05-08T10:50:05.697Z,2.70
2023-05-08T10:52:43.485Z,3.50
2023-05-08T10:55:23.934Z,3.40
2023-05-08T10:58:07.441Z,4.60
2023-05-08T11:01:17.814Z,4.10
2023-05-08T11:03:50.477Z,4.80
2023-05-08T11:06:46.936Z,5.30
2023-05-08T11:09:31.293Z,5.10
2023-05-08T11:12:17.277Z,4.03
2023-05-08T11:14:54.364Z,4.40
2023-05-08T11:17:25.409Z,4.50
2023-05-08T11:19:59.130Z,3.63
2023-05-08T11:22:32.683Z,3.83
2023-05-08T11:25:06.064Z,4.33
2023-05-08T11:28:09.111Z,5.30
2023-05-08T11:30:39.699Z,5.13
2023-05-08T11:33:31.471Z,5.63
2023-05-08T11:36:01.785Z,6.23
2023-05-08T11:38:34.142Z,5.97
2023-05-08T11:41:11.855Z,6.40
2023-05-08T11:44:23.680Z,5.30
2023-05-08T11:46:53.826Z,5.63
2023-05-08T11:49:28.096Z,5.10
2023-05-08T11:52:00.429Z,5.03
2023-05-08T11:54:31.909Z,5.63
2023-05-08T11:57:01.735Z,5.33
2023-05-08T11:59:30.051Z,4.70
2023-05-08T12:02:07.552Z,4.90
2023-05-08T12:04:46.527Z,5.17
2023-05-08T12:07:15.926Z,5.50
2023-05-08T12:09:46.887Z,5.13
2023-05-08T12:12:16.216Z,5.20
2023-05-08T12:14:44.428Z,5.67
2023-05-08T12:17:12.537Z,4.90
2023-05-08T12:19:42.146Z,5.03
2023-05-08T12:22:34.974Z,5.47
2023-05-08T12:25:05.347Z,6.17
2023-05-08T12:27:34.724Z,7.17
2023-05-08T12:30:08.651Z,6.90
2023-05-08T12:32:39.123Z,7.17
2023-05-08T12:35:08.449Z,7.83
2023-05-08T12:37:36.847Z,8.37
2023-05-08T12:40:05.891Z,8.33
2023-05-08T12:42:45.560Z,8.77
2023-05-08T12:45:20.330Z,10.07
2023-05-08T12:47:49.861Z,10.20
2023-05-08T12:50:21.073Z,8.87
2023-05-08T12:52:51.776Z,10.00
2023-05-08T12:55:25.345Z,10.10
2023-05-08T12:58:03.994Z,9.37
2023-05-08T13:00:43.518Z,11.07
2023-05-08T13:03:13.944Z,9.87
2023-05-08T13:05:45.062Z,10.07
2023-05-08T13:08:13.375Z,10.00
2023-05-08T13:10:46.877Z,10.70
2023-05-08T13:13:18.032Z,9.90
2023-05-08T13:15:46.659Z,10.07
2023-05-08T13:18:15.228Z,10.80
2023-05-08T13:20:44.097Z,10.77
2023-05-08T13:23:12.344Z,10.17
2023-05-08T13:25:41.707Z,10.70
2023-05-08T13:28:13.389Z,10.93
2023-05-08T13:30:43.970Z,9.97
2023-05-08T13:33:12.214Z,10.27
2023-05-08T13:35:40.802Z,11.83
2023-05-08T13:38:13.323Z,10.27
2023-05-08T13:40:41.385Z,10.90
2023-05-08T13:43:09.421Z,10.40
2023-05-08T13:45:37.817Z,10.70
2023-05-08T13:48:08.063Z,10.17
2023-05-08T13:50:36.161Z,11.27
2023-05-08T13:53:04.701Z,9.93
2023-05-08T13:55:32.983Z,10.20
2023-05-08T13:58:01.020Z,10.67
2023-05-08T14:00:29.410Z,9.93
2023-05-08T14:02:57.491Z,10.87
2023-05-08T14:05:26.889Z,10.63
2023-05-08T14:07:54.860Z,10.20
2023-05-08T14:10:23.070Z,9.97
2023-05-08T14:12:51.100Z,10.23
2023-05-08T14:15:19.403Z,10.93
2023-05-08T14:17:48.252Z,9.47
2023-05-08T14:20:16.394Z,9.53
2023-05-08T14:22:47.231Z,9.23
2023-05-08T14:25:15.521Z,9.03
2023-05-08T14:27:43.845Z,9.60
2023-05-08T14:30:13.453Z,9.67
2023-05-08T14:32:41.621Z,8.60
2023-05-08T14:35:10.930Z,9.13
2023-05-08T14:37:38.966Z,9.10
2023-05-08T14:40:10.530Z,9.57
2023-05-08T14:42:43.562Z,10.03
2023-05-08T14:45:36.509Z,9.43
2023-05-08T14:48:04.830Z,9.80
2023-05-08T14:50:32.914Z,10.17
2023-05-08T14:53:01.159Z,9.73
2023-05-08T14:55:30.841Z,10.50
2023-05-08T14:57:59.231Z,10.63
2023-05-08T15:00:27.281Z,11.33
2023-05-08T15:02:55.514Z,11.07
2023-05-08T15:05:23.910Z,10.50
2023-05-08T15:07:52.206Z,10.20
2023-05-08T15:10:20.478Z,10.27
2023-05-08T15:12:50.228Z,10.37
2023-05-08T15:15:18.515Z,10.53
2023-05-08T15:17:46.506Z,10.50
2023-05-08T15:20:14.645Z,11.10
2023-05-08T15:22:42.614Z,10.90
2023-05-08T15:25:12.063Z,11.53
2023-05-08T15:27:41.621Z,10.03
2023-05-08T15:30:12.644Z,10.17
2023-05-08T15:32:43.283Z,10.33
2023-05-08T15:35:35.560Z,10.53
2023-05-08T15:38:07.696Z,10.33
2023-05-08T15:40:35.756Z,10.27
2023-05-08T15:43:05.981Z,11.03
2023-05-08T15:45:35.404Z,10.63
2023-05-08T15:48:03.911Z,10.93
2023-05-08T15:50:32.077Z,10.77
2023-05-08T15:53:00.092Z,11.47
2023-05-08T15:55:28.390Z,10.57
2023-05-08T15:57:56.368Z,10.60
2023-05-08T16:00:27.363Z,11.20
2023-05-08T16:02:59.645Z,11.33
2023-05-08T16:05:27.683Z,11.33
2023-05-08T16:07:55.716Z,11.07
2023-05-08T16:10:23.822Z,12.03
2023-05-08T16:12:52.848Z,10.83
2023-05-08T16:15:21.049Z,11.80
2023-05-08T16:17:49.122Z,10.90
2023-05-08T16:20:18.683Z,11.00
2023-05-08T16:22:46.641Z,10.57
2023-05-08T16:25:14.919Z,11.53
2023-05-08T16:27:43.028Z,10.60
2023-05-08T16:30:12.498Z,10.60
2023-05-08T16:32:40.751Z,11.57
2023-05-08T16:35:11.014Z,12.03
2023-05-08T16:37:40.861Z,11.93
2023-05-08T16:40:10.539Z,12.57
2023-05-08T16:42:39.879Z,10.63
2023-05-08T16:45:09.615Z,11.43
2023-05-08T16:47:37.746Z,10.00
2023-05-08T16:50:06.468Z,11.33
2023-05-08T16:52:34.574Z,12.13
2023-05-08T16:55:04.199Z,11.37
2023-05-08T16:57:32.245Z,11.13
2023-05-08T17:00:00.332Z,10.93
2023-05-08T17:02:31.707Z,10.27
2023-05-08T17:04:59.731Z,11.07
2023-05-08T17:07:27.935Z,11.63
2023-05-08T17:09:57.506Z,11.33
2023-05-08T17:12:26.881Z,10.77
2023-05-08T17:14:54.881Z,11.27
2023-05-08T17:17:22.845Z,10.03
2023-05-08T17:19:50.867Z,11.90
2023-05-08T17:22:20.494Z,11.13
2023-05-08T17:24:48.669Z,10.73
2023-05-08T17:27:16.674Z,10.83
2023-05-08T17:29:45.989Z,10.47
2023-05-08T17:32:14.188Z,11.10
2023-05-08T17:34:42.249Z,10.23
2023-05-08T17:37:10.250Z,11.00
2023-05-08T17:39:38.338Z,10.80
2023-05-08T17:42:06.737Z,10.33
2023-05-08T17:44:35.767Z,11.10
2023-05-08T17:47:05.431Z,10.57
2023-05-08T17:49:33.948Z,10.53
2023-05-08T17:52:06.466Z,10.73
2023-05-08T17:54:34.485Z,10.03
2023-05-08T17:57:02.536Z,11.37
2023-05-08T17:59:32.330Z,10.10
2023-05-08T18:02:03.166Z,11.53
2023-05-08T18:04:33.233Z,10.97
2023-05-08T18:07:01.975Z,11.03
2023-05-08T18:09:29.975Z,11.63
2023-05-08T18:12:02.181Z,10.53
2023-05-08T18:14:31.671Z,10.07
2023-05-08T18:17:00.802Z,10.30
2023-05-08T18:19:28.929Z,10.80
2023-05-08T18:21:58.288Z,9.97
2023-05-08T18:24:27.054Z,10.27
2023-05-08T18:26:56.700Z,11.13
2023-05-08T18:29:26.706Z,10.90
2023-05-08T18:31:54.735Z,11.03
2023-05-08T18:34:23.209Z,11.50
2023-05-08T18:36:51.210Z,11.53
2023-05-08T18:39:20.790Z,12.57
2023-05-08T18:41:49.016Z,12.57
2023-05-08T18:44:45.128Z,12.23
2023-05-08T18:47:18.958Z,12.70
2023-05-08T18:49:46.962Z,11.63
2023-05-08T18:52:15.382Z,12.20
2023-05-08T18:54:44.740Z,11.87
2023-05-08T18:57:12.894Z,11.90
2023-05-08T18:59:41.156Z,12.30
2023-05-08T19:02:09.302Z,11.10
2023-05-08T19:04:37.366Z,12.20
2023-05-08T19:07:05.402Z,11.67
2023-05-08T19:09:35.234Z,12.60
2023-05-08T19:12:05.299Z,12.80
2023-05-08T19:14:33.306Z,11.33
2023-05-08T19:17:01.325Z,12.20
2023-05-08T19:19:29.500Z,11.03
2023-05-08T19:21:57.501Z,11.03
2023-05-08T19:24:31.873Z,11.73
2023-05-08T19:26:59.926Z,10.40
2023-05-08T19:29:29.364Z,10.50
2023-05-08T19:31:57.524Z,9.60
2023-05-08T19:34:25.600Z,9.40
2023-05-08T19:36:53.624Z,9.23
2023-05-08T19:39:21.649Z,9.20
2023-05-08T19:41:50.690Z,9.40
2023-05-08T19:44:18.787Z,9.30
2023-05-08T19:46:48.362Z,8.70
2023-05-08T19:49:17.252Z,8.80
2023-05-08T19:51:45.295Z,8.70
2023-05-08T19:54:13.326Z,8.30
2023-05-08T19:56:41.300Z,8.03
2023-05-08T19:59:13.465Z,8.53
2023-05-08T20:01:41.484Z,7.53
2023-05-08T20:04:11.136Z,7.50
2023-05-08T20:06:39.245Z,7.73
2023-05-08T20:09:07.262Z,7.60
2023-05-08T20:11:35.749Z,6.90
2023-05-08T20:14:03.785Z,6.50
2023-05-08T20:16:32.004Z,6.43
2023-05-08T20:19:02.067Z,5.83
2023-05-08T20:21:33.883Z,5.40
2023-05-08T20:24:02.099Z,6.50
2023-05-08T20:26:30.678Z,5.17
2023-05-08T20:28:59.044Z,5.60
2023-05-08T20:31:27.776Z,5.40
2023-05-08T20:33:55.897Z,5.33
2023-05-08T20:36:23.921Z,4.80
2023-05-08T20:38:53.415Z,5.57
2023-05-08T20:41:22.132Z,5.47
2023-05-08T20:43:50.188Z,5.57
2023-05-08T20:46:18.207Z,5.97
2023-05-08T20:48:46.462Z,6.03
2023-05-08T20:51:15.945Z,6.07
2023-05-08T20:53:44.353Z,5.27
2023-05-08T20:56:17.253Z,5.70
2023-05-08T20:58:46.989Z,5.30
2023-05-08T21:01:14.975Z,5.13
2023-05-08T21:03:42.987Z,5.40
2023-05-08T21:06:13.450Z,5.30
2023-05-08T21:08:41.503Z,5.47
2023-05-08T21:11:16.333Z,5.73
2023-05-08T21:13:45.796Z,5.40
2023-05-08T21:16:14.501Z,5.73
2023-05-08T21:18:42.522Z,5.70
2023-05-08T21:21:20.397Z,5.57
2023-05-08T21:23:48.391Z,5.13
2023-05-08T21:26:16.442Z,5.43
2023-05-08T21:28:45.787Z,5.40
2023-05-08T21:31:13.792Z,5.70
2023-05-08T21:33:42.721Z,5.37
2023-05-08T21:36:14.548Z,5.30
2023-05-08T21:38:42.886Z,5.23
2023-05-08T21:41:14.496Z,5.00
2023-05-08T21:43:42.453Z,4.60
2023-05-08T21:46:11.976Z,4.07
2023-05-08T21:48:39.960Z,4.10
2023-05-08T21:51:08.045Z,4.87
2023-05-08T21:53:36.119Z,4.10
2023-05-08T21:56:04.469Z,4.40
2023-05-08T21:58:32.451Z,4.43
2023-05-08T22:01:00.428Z,4.47
2023-05-08T22:03:30.617Z,4.73
2023-05-08T22:05:58.803Z,4.57
2023-05-08T22:08:26.864Z,5.27
2023-05-08T22:10:54.892Z,4.67
2023-05-08T22:13:22.938Z,4.73
2023-05-08T22:15:51.263Z,4.83
2023-05-08T22:18:19.295Z,4.37
2023-05-08T22:20:48.665Z,5.07
2023-05-08T22:23:16.668Z,5.50
2023-05-08T22:25:44.709Z,5.40
2023-05-08T22:28:12.906Z,5.07
2023-05-08T22:30:45.107Z,5.40
2023-05-08T22:33:13.094Z,5.13
2023-05-08T22:35:41.230Z,5.47
2023-05-08T22:38:10.578Z,5.03
2023-05-08T22:40:38.785Z,5.00
2023-05-08T22:43:06.864Z,5.40
2023-05-08T22:45:35.170Z,5.70
2023-05-08T22:48:04.120Z,5.00
2023-05-08T22:50:32.307Z,5.03
2023-05-08T22:53:01.134Z,5.60
2023-05-08T22:55:30.465Z,5.60
2023-05-08T22:57:58.450Z,5.83
2023-05-08T23:00:26.460Z,5.10
2023-05-08T23:02:54.494Z,5.00
2023-05-08T23:05:22.980Z,4.97
2023-05-08T23:07:51.095Z,4.90
2023-05-08T23:10:19.303Z,5.10
2023-05-08T23:12:48.743Z,5.03
2023-05-08T23:15:17.071Z,5.17
2023-05-08T23:17:45.208Z,5.33
2023-05-08T23:20:14.225Z,5.80
2023-05-08T23:22:42.227Z,4.87
2023-05-08T23:25:11.885Z,5.17
2023-05-08T23:27:40.047Z,5.53
2023-05-08T23:30:12.839Z,5.10
2023-05-08T23:32:41.135Z,4.70
2023-05-08T23:35:09.876Z,5.77
2023-05-08T23:37:37.856Z,5.17
2023-05-08T23:40:08.199Z,5.07
2023-05-08T23:42:37.083Z,4.90
2023-05-08T23:45:06.459Z,5.47
2023-05-08T23:47:36.214Z,5.40
2023-05-08T23:50:04.820Z,5.27
2023-05-08T23:52:32.870Z,6.07
2023-05-08T23:55:00.831Z,5.57
2023-05-08T23:57:28.835Z,5.60
2023-05-08T23:59:56.820Z,5.80
